sensor_id;sensor_type;location;lat;lon;timestamp;temperature;humidity
1165;DHT22;571;50.930;6.926;2022-10-16T04:01:11;15.30;99.90
1165;DHT22;571;50.930;6.926;2022-10-16T04:03:37;15.40;99.90
1165;DHT22;571;50.930;6.926;2022-10-16T04:06:04;15.40;99.90
1165;DHT22;571;50.930;6.926;2022-10-16T04:08:31;15.50;99.90
1165;DHT22;571;50.930;6.926;2022-10-16T04:11:00;15.40;99.90
1165;DHT22;571;50.930;6.926;2022-10-16T04:13:27;15.40;99.90
1165;DHT22;571;50.930;6.926;2022-10-16T04:15:53;15.30;99.90
1165;DHT22;571;50.930;6.926;2022-10-16T04:18:21;15.40;99.90
1165;DHT22;571;50.930;6.926;2022-10-16T04:20:48;15.30;99.90
1165;DHT22;571;50.930;6.926;2022-10-16T04:23:15;15.40;99.90
1165;DHT22;571;50.930;6.926;2022-10-16T04:25:41;15.30;99.90
1165;DHT22;571;50.930;6.926;2022-10-16T04:28:08;15.40;99.90
1165;DHT22;571;50.930;6.926;2022-10-16T04:30:37;15.20;99.90
1165;DHT22;571;50.930;6.926;2022-10-16T04:33:04;15.30;99.90
1165;DHT22;571;50.930;6.926;2022-10-16T04:35:32;15.20;99.90
1165;DHT22;571;50.930;6.926;2022-10-16T04:37:59;15.20;99.90
1165;DHT22;571;50.930;6.926;2022-10-16T04:40:26;15.20;99.90
1165;DHT22;571;50.930;6.926;2022-10-16T04:42:53;15.20;99.90
1165;DHT22;571;50.930;6.926;2022-10-16T04:45:20;15.30;99.90
1165;DHT22;571;50.930;6.926;2022-10-16T04:47:46;15.30;99.90
1165;DHT22;571;50.930;6.926;2022-10-16T04:50:13;15.30;99.90
1165;DHT22;571;50.930;6.926;2022-10-16T04:52:41;15.30;99.90
1165;DHT22;571;50.930;6.926;2022-10-16T04:55:08;15.30;99.90
1165;DHT22;571;50.930;6.926;2022-10-16T04:57:35;15.30;99.90
1165;DHT22;571;50.930;6.926;2022-10-16T05:00:03;15.40;99.90
1165;DHT22;571;50.930;6.926;2022-10-16T05:02:30;15.40;99.90
1165;DHT22;571;50.930;6.926;2022-10-16T05:04:56;15.40;99.90
1165;DHT22;571;50.930;6.926;2022-10-16T05:07:23;15.40;99.90
1165;DHT22;571;50.930;6.926;2022-10-16T05:09:51;15.30;99.90
1165;DHT22;571;50.930;6.926;2022-10-16T05:12:18;15.30;99.90
1165;DHT22;571;50.930;6.926;2022-10-16T05:14:45;15.30;99.90
1165;DHT22;571;50.930;6.926;2022-10-16T05:17:12;15.30;99.90
1165;DHT22;571;50.930;6.926;2022-10-16T05:19:39;15.30;99.90
1165;DHT22;571;50.930;6.926;2022-10-16T05:22:05;15.30;99.90
1165;DHT22;571;50.930;6.926;2022-10-16T05:24:32;15.30;99.90
1165;DHT22;571;50.930;6.926;2022-10-16T05:27:00;15.40;99.90
1165;DHT22;571;50.930;6.926;2022-10-16T05:29:27;15.40;99.90
1165;DHT22;571;50.930;6.926;2022-10-16T05:31:54;15.40;99.90
1165;DHT22;571;50.930;6.926;2022-10-16T05:34:21;15.40;99.90
1165;DHT22;571;50.930;6.926;2022-10-16T05:36:51;15.50;99.90
1165;DHT22;571;50.930;6.926;2022-10-16T05:39:18;15.50;99.90
1165;DHT22;571;50.930;6.926;2022-10-16T05:41:44;15.50;99.90
1165;DHT22;571;50.930;6.926;2022-10-16T05:44:13;15.50;99.90
1165;DHT22;571;50.930;6.926;2022-10-16T05:46:39;15.40;99.90
1165;DHT22;571;50.930;6.926;2022-10-16T05:49:06;15.30;99.90
1165;DHT22;571;50.930;6.926;2022-10-16T05:51:33;15.20;99.90
1165;DHT22;571;50.930;6.926;2022-10-16T05:54:00;15.20;99.90
1165;DHT22;571;50.930;6.926;2022-10-16T05:56:27;15.20;99.90
1165;DHT22;571;50.930;6.926;2022-10-16T05:58:54;15.10;99.90
1165;DHT22;571;50.930;6.926;2022-10-16T06:01:22;15.10;99.90
1165;DHT22;571;50.930;6.926;2022-10-16T06:03:50;15.10;99.90
1165;DHT22;571;50.930;6.926;2022-10-16T06:06:18;15.00;99.90
1165;DHT22;571;50.930;6.926;2022-10-16T06:08:47;15.00;99.90
1165;DHT22;571;50.930;6.926;2022-10-16T06:11:17;15.00;99.90
1165;DHT22;571;50.930;6.926;2022-10-16T06:13:44;14.90;99.90
1165;DHT22;571;50.930;6.926;2022-10-16T06:16:13;15.00;99.90
1165;DHT22;571;50.930;6.926;2022-10-16T06:18:41;14.90;99.90
1165;DHT22;571;50.930;6.926;2022-10-16T06:21:10;15.00;99.90
1165;DHT22;571;50.930;6.926;2022-10-16T06:23:38;15.00;99.90
1165;DHT22;571;50.930;6.926;2022-10-16T06:26:06;15.00;99.90
1165;DHT22;571;50.930;6.926;2022-10-16T06:28:33;14.90;99.90
1165;DHT22;571;50.930;6.926;2022-10-16T06:31:00;14.90;99.90
1165;DHT22;571;50.930;6.926;2022-10-16T06:33:27;14.90;99.90
1165;DHT22;571;50.930;6.926;2022-10-16T06:36:00;15.00;99.90
1165;DHT22;571;50.930;6.926;2022-10-16T06:38:26;15.10;99.90
1165;DHT22;571;50.930;6.926;2022-10-16T06:40:54;15.20;99.90
1165;DHT22;571;50.930;6.926;2022-10-16T06:43:21;15.20;99.90
1165;DHT22;571;50.930;6.926;2022-10-16T06:45:51;15.30;99.90
1165;DHT22;571;50.930;6.926;2022-10-16T06:48:18;15.30;99.90
1165;DHT22;571;50.930;6.926;2022-10-16T06:50:51;15.30;99.90
1165;DHT22;571;50.930;6.926;2022-10-16T06:53:23;15.40;99.90
1165;DHT22;571;50.930;6.926;2022-10-16T06:55:50;15.40;99.90
1165;DHT22;571;50.930;6.926;2022-10-16T06:58:18;15.50;99.90
1165;DHT22;571;50.930;6.926;2022-10-16T07:00:45;15.70;99.90
1165;DHT22;571;50.930;6.926;2022-10-16T07:03:11;15.80;99.90
1165;DHT22;571;50.930;6.926;2022-10-16T07:05:38;15.70;99.90
1165;DHT22;571;50.930;6.926;2022-10-16T07:08:06;15.80;99.90
1165;DHT22;571;50.930;6.926;2022-10-16T07:10:36;15.80;99.90
1165;DHT22;571;50.930;6.926;2022-10-16T07:13:03;15.80;99.90
1165;DHT22;571;50.930;6.926;2022-10-16T07:15:29;15.80;99.90
1165;DHT22;571;50.930;6.926;2022-10-16T07:18:04;15.90;99.90
1165;DHT22;571;50.930;6.926;2022-10-16T07:20:33;15.90;99.90
1165;DHT22;571;50.930;6.926;2022-10-16T07:23:00;16.00;99.90
1165;DHT22;571;50.930;6.926;2022-10-16T07:25:26;16.10;99.90
1165;DHT22;571;50.930;6.926;2022-10-16T07:28:15;16.10;99.90
1165;DHT22;571;50.930;6.926;2022-10-16T07:30:51;16.10;99.90
1165;DHT22;571;50.930;6.926;2022-10-16T07:33:18;16.20;99.90
1165;DHT22;571;50.930;6.926;2022-10-16T07:35:49;16.20;99.90
1165;DHT22;571;50.930;6.926;2022-10-16T07:38:16;16.20;99.90
1165;DHT22;571;50.930;6.926;2022-10-16T07:40:43;16.20;99.90
1165;DHT22;571;50.930;6.926;2022-10-16T07:43:10;16.20;99.90
1165;DHT22;571;50.930;6.926;2022-10-16T07:45:45;16.20;99.90
1165;DHT22;571;50.930;6.926;2022-10-16T07:48:12;16.10;99.90
1165;DHT22;571;50.930;6.926;2022-10-16T07:50:39;16.10;99.90
1165;DHT22;571;50.930;6.926;2022-10-16T07:53:06;16.10;99.90
1165;DHT22;571;50.930;6.926;2022-10-16T07:55:32;16.10;99.90
1165;DHT22;571;50.930;6.926;2022-10-16T07:57:59;16.00;99.90
1165;DHT22;571;50.930;6.926;2022-10-16T08:00:26;16.00;99.90
1165;DHT22;571;50.930;6.926;2022-10-16T08:02:54;16.00;99.90
1165;DHT22;571;50.930;6.926;2022-10-16T08:05:22;16.10;99.90
1165;DHT22;571;50.930;6.926;2022-10-16T08:07:49;16.10;99.90
1165;DHT22;571;50.930;6.926;2022-10-16T08:10:17;16.10;99.90
1165;DHT22;571;50.930;6.926;2022-10-16T08:12:44;16.10;99.90
1165;DHT22;571;50.930;6.926;2022-10-16T08:15:11;16.10;99.90
1165;DHT22;571;50.930;6.926;2022-10-16T08:17:37;16.10;99.90
1165;DHT22;571;50.930;6.926;2022-10-16T08:20:07;16.20;99.90
1165;DHT22;571;50.930;6.926;2022-10-16T08:22:34;16.30;99.90
1165;DHT22;571;50.930;6.926;2022-10-16T08:25:00;16.40;99.90
1165;DHT22;571;50.930;6.926;2022-10-16T08:27:31;16.50;99.90
1165;DHT22;571;50.930;6.926;2022-10-16T08:29:57;16.60;99.90
1165;DHT22;571;50.930;6.926;2022-10-16T08:32:24;16.60;99.90
1165;DHT22;571;50.930;6.926;2022-10-16T08:34:51;16.70;99.90
1165;DHT22;571;50.930;6.926;2022-10-16T08:37:22;16.70;99.90
1165;DHT22;571;50.930;6.926;2022-10-16T08:39:51;16.60;99.90
1165;DHT22;571;50.930;6.926;2022-10-16T08:42:36;16.70;99.90
1165;DHT22;571;50.930;6.926;2022-10-16T08:45:19;16.70;99.90
1165;DHT22;571;50.930;6.926;2022-10-16T08:47:57;16.80;99.90
1165;DHT22;571;50.930;6.926;2022-10-16T08:50:28;16.80;99.90
1165;DHT22;571;50.930;6.926;2022-10-16T08:52:57;16.90;99.90
1165;DHT22;571;50.930;6.926;2022-10-16T08:55:33;17.10;99.90
1165;DHT22;571;50.930;6.926;2022-10-16T08:58:01;17.10;99.90
1165;DHT22;571;50.930;6.926;2022-10-16T09:00:28;17.20;99.90
1165;DHT22;571;50.930;6.926;2022-10-16T09:03:03;17.20;99.90
1165;DHT22;571;50.930;6.926;2022-10-16T09:05:52;17.20;99.90
1165;DHT22;571;50.930;6.926;2022-10-16T09:08:28;17.20;99.90
1165;DHT22;571;50.930;6.926;2022-10-16T09:10:59;17.30;99.90
1165;DHT22;571;50.930;6.926;2022-10-16T09:13:31;17.30;99.90
1165;DHT22;571;50.930;6.926;2022-10-16T09:16:12;17.30;99.90
1165;DHT22;571;50.930;6.926;2022-10-16T09:18:45;17.40;99.90
1165;DHT22;571;50.930;6.926;2022-10-16T09:21:18;17.50;99.90
1165;DHT22;571;50.930;6.926;2022-10-16T09:23:46;17.50;99.90
1165;DHT22;571;50.930;6.926;2022-10-16T09:26:15;17.50;99.90
1165;DHT22;571;50.930;6.926;2022-10-16T09:28:43;17.60;99.90
1165;DHT22;571;50.930;6.926;2022-10-16T09:31:15;17.60;99.70
1165;DHT22;571;50.930;6.926;2022-10-16T09:33:44;17.60;99.60
1165;DHT22;571;50.930;6.926;2022-10-16T09:36:12;17.70;99.90
1165;DHT22;571;50.930;6.926;2022-10-16T09:38:39;17.70;99.50
1165;DHT22;571;50.930;6.926;2022-10-16T09:41:15;17.80;99.10
1165;DHT22;571;50.930;6.926;2022-10-16T09:43:46;17.90;99.40
1165;DHT22;571;50.930;6.926;2022-10-16T09:46:24;18.00;99.00
1165;DHT22;571;50.930;6.926;2022-10-16T09:48:53;17.90;98.80
1165;DHT22;571;50.930;6.926;2022-10-16T09:51:23;18.00;99.00
1165;DHT22;571;50.930;6.926;2022-10-16T09:53:55;18.00;97.80
1165;DHT22;571;50.930;6.926;2022-10-16T09:56:25;18.10;98.90
1165;DHT22;571;50.930;6.926;2022-10-16T09:58:53;18.20;98.30
1165;DHT22;571;50.930;6.926;2022-10-16T10:01:22;18.20;97.00
1165;DHT22;571;50.930;6.926;2022-10-16T10:03:50;18.20;97.70
1165;DHT22;571;50.930;6.926;2022-10-16T10:06:22;18.20;97.80
1165;DHT22;571;50.930;6.926;2022-10-16T10:08:58;18.40;97.40
1165;DHT22;571;50.930;6.926;2022-10-16T10:11:54;18.50;97.50
1165;DHT22;571;50.930;6.926;2022-10-16T10:14:24;18.50;96.80
1165;DHT22;571;50.930;6.926;2022-10-16T10:16:52;18.50;97.20
1165;DHT22;571;50.930;6.926;2022-10-16T10:19:20;18.60;96.90
1165;DHT22;571;50.930;6.926;2022-10-16T10:21:48;18.60;96.70
1165;DHT22;571;50.930;6.926;2022-10-16T10:24:17;18.70;96.40
1165;DHT22;571;50.930;6.926;2022-10-16T10:26:49;18.70;96.40
1165;DHT22;571;50.930;6.926;2022-10-16T10:29:28;18.90;96.90
1165;DHT22;571;50.930;6.926;2022-10-16T10:32:05;19.10;95.80
1165;DHT22;571;50.930;6.926;2022-10-16T10:34:47;19.20;95.60
1165;DHT22;571;50.930;6.926;2022-10-16T10:37:30;19.30;96.10
1165;DHT22;571;50.930;6.926;2022-10-16T10:40:07;19.30;96.00
1165;DHT22;571;50.930;6.926;2022-10-16T10:42:45;19.30;94.80
1165;DHT22;571;50.930;6.926;2022-10-16T10:45:24;19.40;95.70
1165;DHT22;571;50.930;6.926;2022-10-16T10:48:03;19.50;95.10
1165;DHT22;571;50.930;6.926;2022-10-16T10:50:38;19.60;95.50
1165;DHT22;571;50.930;6.926;2022-10-16T10:53:12;19.60;99.90
1165;DHT22;571;50.930;6.926;2022-10-16T10:55:47;19.80;94.40
1165;DHT22;571;50.930;6.926;2022-10-16T11:01:09;20.20;95.30
1165;DHT22;571;50.930;6.926;2022-10-16T11:04:01;20.40;93.10
1165;DHT22;571;50.930;6.926;2022-10-16T11:06:33;20.60;93.00
1165;DHT22;571;50.930;6.926;2022-10-16T11:09:09;20.70;93.60
1165;DHT22;571;50.930;6.926;2022-10-16T11:11:42;20.90;93.30
1165;DHT22;571;50.930;6.926;2022-10-16T11:14:19;21.00;92.30
1165;DHT22;571;50.930;6.926;2022-10-16T11:16:53;21.10;93.20
1165;DHT22;571;50.930;6.926;2022-10-16T11:19:28;21.20;93.70
1165;DHT22;571;50.930;6.926;2022-10-16T11:22:03;21.20;91.70
1165;DHT22;571;50.930;6.926;2022-10-16T11:24:40;21.20;93.30
1165;DHT22;571;50.930;6.926;2022-10-16T11:27:14;21.20;92.40
1165;DHT22;571;50.930;6.926;2022-10-16T11:29:46;21.40;92.70
1165;DHT22;571;50.930;6.926;2022-10-16T11:32:22;21.50;92.70
1165;DHT22;571;50.930;6.926;2022-10-16T11:37:52;21.40;90.80
1165;DHT22;571;50.930;6.926;2022-10-16T11:40:30;21.60;91.90
1165;DHT22;571;50.930;6.926;2022-10-16T11:43:08;21.80;91.00
1165;DHT22;571;50.930;6.926;2022-10-16T11:45:41;22.00;90.60
1165;DHT22;571;50.930;6.926;2022-10-16T11:48:20;22.20;91.70
1165;DHT22;571;50.930;6.926;2022-10-16T11:50:53;22.20;90.00
1165;DHT22;571;50.930;6.926;2022-10-16T11:53:28;22.40;87.20
1165;DHT22;571;50.930;6.926;2022-10-16T11:55:58;22.60;90.70
1165;DHT22;571;50.930;6.926;2022-10-16T11:58:28;22.90;85.90
1165;DHT22;571;50.930;6.926;2022-10-16T12:01:16;22.80;81.00
1165;DHT22;571;50.930;6.926;2022-10-16T12:03:52;23.00;85.30
1165;DHT22;571;50.930;6.926;2022-10-16T12:06:28;23.20;85.00
1165;DHT22;571;50.930;6.926;2022-10-16T12:09:02;23.20;80.00
1165;DHT22;571;50.930;6.926;2022-10-16T12:11:43;23.10;86.00
1165;DHT22;571;50.930;6.926;2022-10-16T12:14:35;23.20;82.40
1165;DHT22;571;50.930;6.926;2022-10-16T12:17:04;23.30;83.00
1165;DHT22;571;50.930;6.926;2022-10-16T12:20:18;23.20;79.20
1165;DHT22;571;50.930;6.926;2022-10-16T12:22:50;23.30;80.30
1165;DHT22;571;50.930;6.926;2022-10-16T12:25:24;23.30;85.90
1165;DHT22;571;50.930;6.926;2022-10-16T12:28:00;23.40;82.60
1165;DHT22;571;50.930;6.926;2022-10-16T12:34:17;23.50;79.50
1165;DHT22;571;50.930;6.926;2022-10-16T12:37:33;23.50;84.90
1165;DHT22;571;50.930;6.926;2022-10-16T12:40:29;23.50;79.60
1165;DHT22;571;50.930;6.926;2022-10-16T12:47:18;23.90;77.20
1165;DHT22;571;50.930;6.926;2022-10-16T12:52:43;24.10;82.30
1165;DHT22;571;50.930;6.926;2022-10-16T12:55:34;24.40;79.20
1165;DHT22;571;50.930;6.926;2022-10-16T12:58:46;24.10;77.10
1165;DHT22;571;50.930;6.926;2022-10-16T13:01:46;24.00;81.40
1165;DHT22;571;50.930;6.926;2022-10-16T13:04:55;23.80;81.80
1165;DHT22;571;50.930;6.926;2022-10-16T13:08:02;24.00;81.10
1165;DHT22;571;50.930;6.926;2022-10-16T13:11:06;23.70;83.40
1165;DHT22;571;50.930;6.926;2022-10-16T13:14:07;23.60;83.60
1165;DHT22;571;50.930;6.926;2022-10-16T13:16:54;23.40;81.90
1165;DHT22;571;50.930;6.926;2022-10-16T13:19:41;23.30;76.40
1165;DHT22;571;50.930;6.926;2022-10-16T13:22:21;23.20;79.40
1165;DHT22;571;50.930;6.926;2022-10-16T13:25:15;23.20;85.80
1165;DHT22;571;50.930;6.926;2022-10-16T13:31:02;23.10;81.00
1165;DHT22;571;50.930;6.926;2022-10-16T13:34:02;23.00;82.10
1165;DHT22;571;50.930;6.926;2022-10-16T13:39:34;22.70;80.10
1165;DHT22;571;50.930;6.926;2022-10-16T13:42:41;22.70;80.50
1165;DHT22;571;50.930;6.926;2022-10-16T13:45:27;22.70;81.90
1165;DHT22;571;50.930;6.926;2022-10-16T13:48:32;22.80;85.20
1165;DHT22;571;50.930;6.926;2022-10-16T13:51:15;22.80;80.90
1165;DHT22;571;50.930;6.926;2022-10-16T13:54:12;22.70;81.50
1165;DHT22;571;50.930;6.926;2022-10-16T13:56:46;22.70;81.70
1165;DHT22;571;50.930;6.926;2022-10-16T13:59:51;22.70;84.80
1165;DHT22;571;50.930;6.926;2022-10-16T14:02:57;22.80;84.90
1165;DHT22;571;50.930;6.926;2022-10-16T14:05:53;22.90;83.40
1165;DHT22;571;50.930;6.926;2022-10-16T14:11:49;22.80;82.30
1165;DHT22;571;50.930;6.926;2022-10-16T14:18:01;22.70;83.60
1165;DHT22;571;50.930;6.926;2022-10-16T14:21:02;22.60;83.00
1165;DHT22;571;50.930;6.926;2022-10-16T14:26:43;22.40;85.60
1165;DHT22;571;50.930;6.926;2022-10-16T14:29:17;22.30;86.80
1165;DHT22;571;50.930;6.926;2022-10-16T14:31:59;22.70;89.30
1165;DHT22;571;50.930;6.926;2022-10-16T14:34:32;22.30;88.20
1165;DHT22;571;50.930;6.926;2022-10-16T14:40:19;22.30;89.30
1165;DHT22;571;50.930;6.926;2022-10-16T14:43:01;22.20;87.10
1165;DHT22;571;50.930;6.926;2022-10-16T14:54:47;22.20;90.50
1165;DHT22;571;50.930;6.926;2022-10-16T15:01:03;22.20;90.30
1165;DHT22;571;50.930;6.926;2022-10-16T15:03:34;22.00;89.90
1165;DHT22;571;50.930;6.926;2022-10-16T15:09:33;22.10;91.50
1165;DHT22;571;50.930;6.926;2022-10-16T15:20:52;21.40;92.20
1165;DHT22;571;50.930;6.926;2022-10-16T15:23:36;21.50;92.80
1165;DHT22;571;50.930;6.926;2022-10-16T15:29:17;21.80;92.80
1165;DHT22;571;50.930;6.926;2022-10-16T15:31:50;21.30;92.80
1165;DHT22;571;50.930;6.926;2022-10-16T15:37:16;21.30;92.70
1165;DHT22;571;50.930;6.926;2022-10-16T15:53:17;21.30;93.70
1165;DHT22;571;50.930;6.926;2022-10-16T16:05:24;20.90;94.50
1165;DHT22;571;50.930;6.926;2022-10-16T16:39:34;20.40;95.70
1165;DHT22;571;50.930;6.926;2022-10-16T16:55:52;20.10;96.50
1165;DHT22;571;50.930;6.926;2022-10-16T16:58:59;20.00;96.90
1165;DHT22;571;50.930;6.926;2022-10-16T17:22:37;19.80;97.50
1165;DHT22;571;50.930;6.926;2022-10-16T17:38:22;19.80;98.20
1165;DHT22;571;50.930;6.926;2022-10-16T18:36:14;19.40;99.90
1165;DHT22;571;50.930;6.926;2022-10-16T18:38:43;19.40;99.90
1165;DHT22;571;50.930;6.926;2022-10-16T18:44:23;19.40;99.90
1165;DHT22;571;50.930;6.926;2022-10-16T18:47:07;19.40;99.90
1165;DHT22;571;50.930;6.926;2022-10-16T18:49:59;19.50;99.90
1165;DHT22;571;50.930;6.926;2022-10-16T18:56:11;19.30;99.90
1165;DHT22;571;50.930;6.926;2022-10-16T18:58:58;19.30;99.90
1165;DHT22;571;50.930;6.926;2022-10-16T19:01:35;19.30;99.90
1165;DHT22;571;50.930;6.926;2022-10-16T19:04:18;19.40;99.90
1165;DHT22;571;50.930;6.926;2022-10-16T19:06:52;19.30;99.90
1165;DHT22;571;50.930;6.926;2022-10-16T19:09:35;19.30;99.90
1165;DHT22;571;50.930;6.926;2022-10-16T19:12:24;19.20;99.90
1165;DHT22;571;50.930;6.926;2022-10-16T19:15:32;20.20;99.90
1165;DHT22;571;50.930;6.926;2022-10-16T19:18:33;19.20;99.90
1165;DHT22;571;50.930;6.926;2022-10-16T19:21:17;19.30;99.90
1165;DHT22;571;50.930;6.926;2022-10-16T19:23:45;19.20;99.90
1165;DHT22;571;50.930;6.926;2022-10-16T19:26:19;19.20;99.90
1165;DHT22;571;50.930;6.926;2022-10-16T19:29:08;19.20;99.90
1165;DHT22;571;50.930;6.926;2022-10-16T19:31:41;19.20;99.90
1165;DHT22;571;50.930;6.926;2022-10-16T19:34:11;19.20;99.90
1165;DHT22;571;50.930;6.926;2022-10-16T19:36:39;19.10;99.90
1165;DHT22;571;50.930;6.926;2022-10-16T19:39:11;19.10;99.90
1165;DHT22;571;50.930;6.926;2022-10-16T19:41:44;19.00;99.90
1165;DHT22;571;50.930;6.926;2022-10-16T19:44:47;19.00;99.90
1165;DHT22;571;50.930;6.926;2022-10-16T19:47:34;19.00;99.90
1165;DHT22;571;50.930;6.926;2022-10-16T19:50:06;18.90;99.90
1165;DHT22;571;50.930;6.926;2022-10-16T19:52:35;18.80;99.90
1165;DHT22;571;50.930;6.926;2022-10-16T19:55:08;18.80;99.90
1165;DHT22;571;50.930;6.926;2022-10-16T19:57:38;18.80;99.90
1165;DHT22;571;50.930;6.926;2022-10-16T20:00:10;18.70;99.90
1165;DHT22;571;50.930;6.926;2022-10-16T20:02:38;18.70;99.90
1165;DHT22;571;50.930;6.926;2022-10-16T20:05:25;18.70;99.90
1165;DHT22;571;50.930;6.926;2022-10-16T20:08:10;18.70;99.90
1165;DHT22;571;50.930;6.926;2022-10-16T20:10:47;18.80;99.90
1165;DHT22;571;50.930;6.926;2022-10-16T20:13:29;18.80;99.90
1165;DHT22;571;50.930;6.926;2022-10-16T20:16:05;18.70;99.90
1165;DHT22;571;50.930;6.926;2022-10-16T20:18:42;18.70;99.90
1165;DHT22;571;50.930;6.926;2022-10-16T20:21:40;18.70;99.90
1165;DHT22;571;50.930;6.926;2022-10-16T20:24:12;18.70;99.90
1165;DHT22;571;50.930;6.926;2022-10-16T20:26:50;18.80;99.90
1165;DHT22;571;50.930;6.926;2022-10-16T20:29:30;18.70;99.90
1165;DHT22;571;50.930;6.926;2022-10-16T20:32:02;18.70;99.90
1165;DHT22;571;50.930;6.926;2022-10-16T20:34:33;18.60;99.90
1165;DHT22;571;50.930;6.926;2022-10-16T20:37:07;18.70;99.90
1165;DHT22;571;50.930;6.926;2022-10-16T20:39:57;18.70;99.90
1165;DHT22;571;50.930;6.926;2022-10-16T20:42:30;18.70;99.90
1165;DHT22;571;50.930;6.926;2022-10-16T20:45:18;18.70;99.90
1165;DHT22;571;50.930;6.926;2022-10-16T20:47:50;18.70;99.90
1165;DHT22;571;50.930;6.926;2022-10-16T20:50:18;18.70;99.90
1165;DHT22;571;50.930;6.926;2022-10-16T20:52:51;18.60;99.90
1165;DHT22;571;50.930;6.926;2022-10-16T20:55:44;18.50;99.90
1165;DHT22;571;50.930;6.926;2022-10-16T20:58:21;18.50;99.90
1165;DHT22;571;50.930;6.926;2022-10-16T21:00:55;18.50;99.90
1165;DHT22;571;50.930;6.926;2022-10-16T21:03:42;18.40;99.90
1165;DHT22;571;50.930;6.926;2022-10-16T21:06:48;18.50;99.90
1165;DHT22;571;50.930;6.926;2022-10-16T21:09:12;18.50;99.90
1165;DHT22;571;50.930;6.926;2022-10-16T21:11:42;18.30;99.90
1165;DHT22;571;50.930;6.926;2022-10-16T21:14:14;18.30;99.90
1165;DHT22;571;50.930;6.926;2022-10-16T21:16:56;18.20;99.90
1165;DHT22;571;50.930;6.926;2022-10-16T21:19:37;18.20;99.90
1165;DHT22;571;50.930;6.926;2022-10-16T21:22:11;18.20;99.90
1165;DHT22;571;50.930;6.926;2022-10-16T21:24:43;18.10;99.90
1165;DHT22;571;50.930;6.926;2022-10-16T21:27:29;18.20;99.90
1165;DHT22;571;50.930;6.926;2022-10-16T21:30:27;18.00;99.90
1165;DHT22;571;50.930;6.926;2022-10-16T21:33:26;18.10;99.90
1165;DHT22;571;50.930;6.926;2022-10-16T21:36:19;18.00;99.90
1165;DHT22;571;50.930;6.926;2022-10-16T21:39:07;17.90;99.90
1165;DHT22;571;50.930;6.926;2022-10-16T21:41:38;18.00;99.90
1165;DHT22;571;50.930;6.926;2022-10-16T21:44:05;18.00;99.90
1165;DHT22;571;50.930;6.926;2022-10-16T21:46:35;17.90;99.90
1165;DHT22;571;50.930;6.926;2022-10-16T21:49:15;17.90;99.90
1165;DHT22;571;50.930;6.926;2022-10-16T21:51:49;17.90;99.90
1165;DHT22;571;50.930;6.926;2022-10-16T21:54:22;17.80;99.90
